Data for 11/25/2014

Time Sea-Level Adjusted Pressure Absolute Pressure Temperature Relative Humidity Dew Point   
(mb) (inHg) (mb) (inHg) (C) (F) (%) (C) (F)
00:05 1019 30.09 848 25.04 1.8 35.3 41 -10.1 13.7
00:10 1019 30.09 848 25.04 1.8 35.2 42 -9.9 14.1
00:15 1019 30.09 848 25.04 1.7 35 42 -9.8 14.4
00:20 1018 30.06 848 25.04 1.6 34.8 42 -10.1 13.8
00:25 1018 30.06 847 25.01 1.6 34.8 41 -10.3 13.4
00:30 1018 30.06 847 25.01 1.7 35.1 40 -10.5 13
00:35 1018 30.06 847 25.01 2 35.5 39 -10.6 13
00:40 1018 30.06 847 25.01 2.2 35.9 39 -10.4 13.3
00:45 1018 30.06 847 25.01 2.1 35.8 40 -10.1 13.9
00:50 1018 30.06 847 25.01 2.1 35.7 42 -9.7 14.6
00:55 1018 30.06 847 25.01 2 35.6 41 -10 14.1
01:00 1018 30.06 847 25.01 2 35.6 41 -9.8 14.3
01:05 1018 30.06 847 25.01 2 35.6 42 -9.5 14.9
01:10 1018 30.06 847 25.01 2 35.6 41 -9.8 14.4
01:15 1018 30.06 847 25.01 2 35.7 43 -9.4 15
01:20 1017 30.03 847 25.01 2 35.6 42 -9.7 14.6
01:25 1017 30.03 846 24.98 2.1 35.8 41 -9.9 14.2
01:30 1017 30.03 846 24.98 2.3 36.2 38 -10.4 13.2
01:35 1017 30.03 846 24.98 2.5 36.5 40 -9.9 14.2
01:40 1017 30.03 846 24.98 2.4 36.4 39 -10.2 13.6
01:45 1017 30.03 846 24.98 2.6 36.7 38 -10.4 13.3
01:50 1017 30.03 846 24.98 2.7 36.9 37 -10.4 13.2
01:55 1017 30.03 846 24.98 2.8 37 38 -10.2 13.7
02:00 1017 30.03 846 24.98 2.8 37 38 -10 13.9
02:05 1017 30.03 846 24.98 2.8 37 39 -9.9 14.2
02:10 1016 30 846 24.98 2.8 37 40 -9.7 14.6
02:15 1016 30 846 24.98 2.8 37 40 -9.5 14.8
02:20 1016 30 846 24.98 2.7 36.8 41 -9.4 15
02:25 1016 30 845 24.95 2.7 36.9 40 -9.5 14.8
02:30 1016 30 845 24.95 3 37.4 40 -9.4 15.1
02:35 1016 30 845 24.95 3.1 37.5 41 -8.8 16.1
02:40 1016 30 845 24.95 3 37.4 40 -9.2 15.5
02:45 1016 30 845 24.95 3.2 37.7 41 -9 15.8
02:50 1016 30 845 24.95 3.1 37.6 41 -8.7 16.3
02:55 1016 30 845 24.95 3.1 37.5 41 -9 15.7
03:00 1016 30 845 24.95 3.3 37.9 41 -8.8 16.2
03:05 1016 30 845 24.95 3.3 37.9 43 -8.3 17.1
03:10 1016 30 845 24.95 3.2 37.8 43 -8.1 17.5
03:15 1016 30 845 24.95 3.2 37.7 45 -7.7 18.2
03:20 1016 30 845 24.95 3.1 37.6 45 -7.6 18.3
03:25 1016 30 845 24.95 3.1 37.6 45 -7.7 18.1
03:30 1016 30 845 24.95 3.1 37.6 46 -7.4 18.6
03:35 1016 30 845 24.95 3 37.4 47 -7.2 19
03:40 1016 30 845 24.95 2.8 37.1 48 -7.2 19.1
03:45 1016 30 845 24.95 2.7 36.9 48 -7.2 19
03:50 1016 30 845 24.95 2.7 36.9 48 -7.1 19.2
03:55 1016 30 845 24.95 2.7 36.9 49 -7 19.3
04:00 1016 30 845 24.95 2.8 37 49 -6.9 19.6
04:05 1016 30 845 24.95 2.9 37.3 49 -6.6 20.1
04:10 1016 30 845 24.95 3.1 37.6 49 -6.7 20
04:15 1016 30 845 24.95 3.3 37.9 50 -6.2 20.8
04:20 1016 30 845 24.95 3.2 37.8 51 -5.8 21.5
04:25 1016 30 845 24.95 3.2 37.8 52 -5.7 21.7
04:30 1015 29.97 845 24.95 3.2 37.7 51 -5.9 21.4
04:35 1015 29.97 844 24.92 3.1 37.5 52 -5.8 21.5
04:40 1015 29.97 844 24.92 3 37.4 54 -5.3 22.4
04:45 1015 29.97 844 24.92 2.9 37.2 56 -5.1 22.7
04:50 1015 29.97 844 24.92 2.9 37.2 56 -5 23
04:55 1015 29.97 844 24.92 2.7 36.9 56 -5.1 22.8
05:00 1015 29.97 844 24.92 2.7 36.9 54 -5.6 22
05:05 1014 29.94 844 24.92 2.9 37.2 53 -5.8 21.5
05:10 1014 29.94 844 24.92 3 37.4 53 -5.7 21.8
05:15 1014 29.94 844 24.92 2.9 37.3 53 -5.7 21.7
05:20 1015 29.97 844 24.92 2.9 37.2 54 -5.6 21.9
05:25 1014 29.94 844 24.92 2.8 37 55 -5.4 22.2
05:30 1014 29.94 844 24.92 2.7 36.9 55 -5.5 22.1
05:35 1014 29.94 844 24.92 2.9 37.2 54 -5.4 22.3
05:40 1014 29.94 844 24.92 2.9 37.3 55 -5.3 22.4
05:45 1014 29.94 844 24.92 3 37.4 55 -5.3 22.5
05:50 1014 29.94 843 24.89 3 37.5 54 -5.3 22.4
05:55 1014 29.94 843 24.89 3 37.5 54 -5.3 22.4
06:00 1014 29.94 843 24.89 3.2 37.7 54 -5.2 22.6
06:05 1014 29.94 843 24.89 3.2 37.8 54 -5.2 22.7
06:10 1014 29.94 843 24.89 3.4 38 54 -5 22.9
06:15 1014 29.94 843 24.89 3.4 38.2 54 -5.1 22.9
06:20 1014 29.94 843 24.89 3.6 38.4 55 -4.6 23.6
06:25 1014 29.94 843 24.89 3.4 38.2 54 -4.9 23.2
06:30 1014 29.94 843 24.89 3.1 37.6 55 -5 23.1
06:35 1014 29.94 843 24.89 2.9 37.2 56 -4.9 23.1
06:40 1014 29.94 843 24.89 2.8 37 57 -5 23
06:45 1014 29.94 843 24.89 3 37.4 56 -5 23
06:50 1014 29.94 843 24.89 3.1 37.6 55 -5 23.1
06:55 1014 29.94 843 24.89 3.1 37.5 56 -4.8 23.4
07:00 1014 29.94 843 24.89 3 37.3 59 -4.2 24.5
07:05 1014 29.94 843 24.89 2.8 37 61 -4 24.9
07:10 1014 29.94 843 24.89 2.6 36.7 63 -3.8 25.1
07:15 1014 29.94 843 24.89 2.5 36.4 63 -4 24.9
07:20 1014 29.94 843 24.89 2.4 36.4 63 -3.8 25.2
07:25 1014 29.94 843 24.89 2.4 36.3 63 -4 24.9
07:30 1014 29.94 843 24.89 2.5 36.5 62 -4 24.8
07:35 1014 29.94 843 24.89 2.6 36.7 62 -3.9 24.9
07:40 1014 29.94 843 24.89 2.6 36.7 63 -3.7 25.4
07:45 1014 29.94 844 24.92 2.5 36.5 64 -3.6 25.6
07:50 1014 29.94 844 24.92 2.4 36.4 65 -3.4 25.9
07:55 1014 29.94 844 24.92 2.4 36.4 66 -3.2 26.2
08:00 1015 29.97 844 24.92 2.3 36.1 69 -2.9 26.8
08:05 1015 29.97 844 24.92 2.1 35.8 69 -2.9 26.7
08:10 1015 29.97 844 24.92 1.9 35.5 70 -3 26.7
08:15 1014 29.94 844 24.92 1.9 35.3 70 -3 26.6
08:20 1014 29.94 844 24.92 2 35.6 69 -3.1 26.4
08:25 1014 29.94 844 24.92 2.1 35.9 69 -2.9 26.7
08:30 1014 29.94 844 24.92 2.1 35.8 69 -3 26.6
08:35 1015 29.97 844 24.92 2.1 35.8 70 -2.9 26.9
08:40 1014 29.94 844 24.92 2.2 35.9 68 -3.2 26.3
08:45 1014 29.94 844 24.92 2.4 36.3 68 -2.9 26.7
08:50 1014 29.94 844 24.92 2.3 36.2 68 -3 26.5
08:55 1014 29.94 844 24.92 2.4 36.3 68 -2.9 26.8
09:00 1014 29.94 844 24.92 2.5 36.5 68 -2.7 27.1
09:05 1014 29.94 844 24.92 2.5 36.5 70 -2.5 27.5
09:10 1014 29.94 844 24.92 2.6 36.7 69 -2.5 27.5
09:15 1014 29.94 844 24.92 2.7 36.9 70 -2.1 28.2
09:20 1015 29.97 844 24.92 2.9 37.2 68 -2.4 27.7
09:25 1015 29.97 844 24.92 2.9 37.2 68 -2.4 27.6
09:30 1015 29.97 844 24.92 2.9 37.3 67 -2.5 27.5
09:35 1015 29.97 844 24.92 2.9 37.2 68 -2.5 27.6
09:40 1015 29.97 844 24.92 2.8 37.1 68 -2.4 27.6
09:45 1015 29.97 844 24.92 2.9 37.1 67 -2.6 27.3
09:50 1015 29.97 844 24.92 2.9 37.2 67 -2.6 27.3
09:55 1015 29.97 844 24.92 2.9 37.2 67 -2.7 27.1
10:00 1015 29.97 844 24.92 2.9 37.1 67 -2.7 27.1
10:05 1015 29.97 844 24.92 2.9 37.2 67 -2.7 27.1
10:10 1015 29.97 844 24.92 2.9 37.2 67 -2.7 27.2
10:15 1015 29.97 844 24.92 2.9 37.2 67 -2.7 27.2
10:20 1015 29.97 844 24.92 2.9 37.2 66 -2.7 27.1
10:25 1015 29.97 845 24.95 2.9 37.2 66 -2.7 27.1
10:30 1015 29.97 844 24.92 2.9 37.2 66 -2.9 26.8
10:35 1015 29.97 844 24.92 2.9 37.2 66 -2.8 26.9
10:40 1015 29.97 844 24.92 2.9 37.2 66 -2.8 26.9
10:45 1015 29.97 845 24.95 3 37.4 66 -2.8 27
10:50 1015 29.97 844 24.92 2.9 37.2 67 -2.5 27.5
10:55 1015 29.97 845 24.95 2.9 37.2 67 -2.6 27.3
11:00 1015 29.97 845 24.95 3 37.3 68 -2.4 27.7
11:05 1015 29.97 845 24.95 2.9 37.2 69 -2.2 28
11:10 1015 29.97 844 24.92 2.8 37 70 -2.2 28.1
11:15 1015 29.97 845 24.95 2.9 37.2 69 -2.3 27.9
11:20 1015 29.97 845 24.95 3 37.4 69 -2.2 28.1
11:25 1016 30 845 24.95 3.1 37.5 69 -2 28.4
11:30 1016 30 845 24.95 3.1 37.7 69 -2 28.5
11:35 1016 30 845 24.95 3.2 37.8 69 -1.9 28.6
11:40 1016 30 845 24.95 3.2 37.7 70 -1.8 28.7
11:45 1016 30 845 24.95 3.2 37.8 71 -1.6 29.1
11:50 1016 30 845 24.95 3.2 37.7 71 -1.6 29.1
11:55 1016 30 845 24.95 3.1 37.7 71 -1.6 29.1
12:00 1016 30 845 24.95 3.2 37.8 71 -1.5 29.4
12:05 1016 30 845 24.95 3.3 38 71 -1.4 29.5
12:10 1016 30 845 24.95 3.3 38 72 -1.3 29.7
12:15 1016 30 845 24.95 3.3 37.9 72 -1.3 29.7
12:20 1016 30 845 24.95 3.2 37.8 73 -1.2 29.8
12:25 1016 30 845 24.95 3.2 37.8 73 -1.1 30
12:30 1016 30 845 24.95 3.3 37.9 74 -0.9 30.4
12:35 1016 30 845 24.95 3.2 37.8 76 -0.7 30.8
12:40 1016 30 845 24.95 3.2 37.8 76 -0.6 30.9
12:45 1016 30 845 24.95 3.3 37.9 76 -0.6 30.9
12:50 1016 30 845 24.95 3.4 38.1 77 -0.3 31.4
12:55 1016 30 845 24.95 3.2 37.8 78 -0.2 31.6
13:00 1016 30 845 24.95 3.3 37.9 78 -0.1 31.8
13:05 1016 30 845 24.95 3.3 38 79 0.1 32.1
13:10 1016 30 845 24.95 3.3 38 80 0.3 32.5
13:15 1016 30 845 24.95 3.2 37.8 83 0.6 33.1
13:20 1016 30 846 24.98 3.1 37.5 84 0.7 33.2
13:25 1016 30 846 24.98 2.8 37.1 87 0.8 33.5
13:30 1017 30.03 846 24.98 2.7 36.9 88 0.9 33.6
13:35 1016 30 846 24.98 2.7 36.8 89 1 33.8
13:40 1016 30 846 24.98 2.7 36.9 88 1 33.8
13:45 1016 30 846 24.98 2.7 36.9 89 1.1 33.9
13:50 1017 30.03 846 24.98 2.7 36.8 89 1.1 33.9
13:55 1017 30.03 846 24.98 2.6 36.6 90 1.1 33.9
14:00 1017 30.03 846 24.98 2.4 36.4 90 1 33.8
14:05 1017 30.03 846 24.98 2.3 36.2 91 0.9 33.7
14:10 1017 30.03 846 24.98 2.2 35.9 91 0.9 33.6
14:15 1017 30.03 846 24.98 2.2 36 91 0.8 33.5
14:20 1017 30.03 846 24.98 2.3 36.2 90 0.9 33.6
14:25 1017 30.03 846 24.98 2.4 36.3 89 0.7 33.3
14:30 1017 30.03 846 24.98 2.4 36.3 88 0.5 33
14:35 1017 30.03 846 24.98 2.4 36.3 87 0.4 32.7
14:40 1017 30.03 846 24.98 2.4 36.2 87 0.4 32.8
14:45 1017 30.03 846 24.98 2.3 36.2 86 0.3 32.5
14:50 1017 30.03 847 25.01 2.4 36.2 86 0.2 32.4
14:55 1017 30.03 847 25.01 2.3 36.1 85 0.1 32.2
15:00 1017 30.03 847 25.01 2.3 36.1 86 0.2 32.4
15:05 1018 30.06 847 25.01 1.7 35 89 0 32
15:10 1018 30.06 847 25.01 0.7 33.2 91 -0.6 30.9
15:15 1018 30.06 847 25.01 0.3 32.5 92 -0.8 30.5
15:20 1018 30.06 847 25.01 0.1 32.2 93 -0.9 30.5
15:25 1018 30.06 847 25.01 0.1 32.1 93 -0.9 30.4
15:30 1018 30.06 847 25.01 0 32.1 93 -0.9 30.4
15:35 1018 30.06 847 25.01 0 32.1 94 -0.9 30.4
15:40 1018 30.06 847 25.01 0 32 94 -0.9 30.4
15:45 1018 30.06 847 25.01 0 32 94 -0.8 30.5
15:50 1018 30.06 847 25.01 0 32.1 94 -0.8 30.6
15:55 1018 30.06 847 25.01 0.1 32.1 94 -0.7 30.7
16:00 1018 30.06 848 25.04 0.1 32.2 94 -0.7 30.7
16:05 1019 30.09 848 25.04 0.1 32.1 94 -0.8 30.6
16:10 1019 30.09 848 25.04 0 32 94 -0.8 30.5
16:15 1019 30.09 848 25.04 0 32.1 94 -0.8 30.6
16:20 1019 30.09 848 25.04 0.1 32.1 94 -0.8 30.6
16:25 1019 30.09 848 25.04 0 32.1 94 -0.8 30.6
16:30 1019 30.09 848 25.04 0 32.1 94 -0.7 30.7
16:35 1019 30.09 848 25.04 0.1 32.1 94 -0.7 30.7
16:40 1019 30.09 848 25.04 0.1 32.1 94 -0.7 30.7
16:45 1019 30.09 848 25.04 0 32.1 94 -0.8 30.6
16:50 1019 30.09 848 25.04 0 32.1 94 -0.8 30.6
16:55 1019 30.09 849 25.07 0 32 94 -0.8 30.5
17:00 1019 30.09 849 25.07 0 32 94 -0.8 30.6
17:05 1019 30.09 849 25.07 -0 32 94 -0.8 30.5
17:10 1020 30.12 849 25.07 -0 31.9 94 -0.9 30.5
17:15 1020 30.12 849 25.07 -0.1 31.9 94 -0.9 30.4
17:20 1020 30.12 849 25.07 -0.1 31.8 94 -0.9 30.3
17:25 1020 30.12 849 25.07 -0.1 31.8 95 -0.9 30.4
17:30 1020 30.12 849 25.07 -0.1 31.8 95 -0.9 30.4
17:35 1020 30.12 849 25.07 -0.2 31.7 95 -1 30.3
17:40 1020 30.12 849 25.07 -0.2 31.6 95 -1 30.3
17:45 1020 30.12 849 25.07 -0.2 31.6 95 -0.9 30.3
17:50 1020 30.12 849 25.07 -0.2 31.6 95 -1 30.3
17:55 1020 30.12 849 25.07 -0.2 31.6 95 -1 30.2
18:00 1020 30.12 849 25.07 -0.2 31.6 95 -1 30.3
18:05 1020 30.12 849 25.07 -0.3 31.5 95 -1 30.3
18:10 1020 30.12 849 25.07 -0.3 31.5 95 -1 30.2
18:15 1020 30.12 849 25.07 -0.3 31.5 95 -1 30.3
18:20 1020 30.12 849 25.07 -0.3 31.5 95 -1 30.2
18:25 1020 30.12 849 25.07 -0.3 31.4 95 -1 30.2
18:30 1020 30.12 849 25.07 -0.3 31.4 95 -1 30.1
18:35 1020 30.12 849 25.07 -0.4 31.3 95 -1.1 30.1
18:40 1020 30.12 849 25.07 -0.4 31.3 95 -1.1 30.1
18:45 1020 30.12 850 25.1 -0.4 31.3 95 -1.1 30
18:50 1020 30.12 850 25.1 -0.4 31.2 95 -1.1 30
18:55 1020 30.12 850 25.1 -0.4 31.2 95 -1.1 30
19:00 1021 30.15 850 25.1 -0.4 31.2 95 -1.1 30
19:05 1021 30.15 850 25.1 -0.4 31.2 95 -1.1 30
19:10 1021 30.15 850 25.1 -0.5 31.1 95 -1.2 29.9
19:15 1021 30.15 850 25.1 -0.6 31 95 -1.2 29.8
19:20 1021 30.15 850 25.1 -0.7 30.8 95 -1.3 29.6
19:25 1021 30.15 850 25.1 -0.7 30.7 95 -1.4 29.5
19:30 1021 30.15 850 25.1 -0.7 30.8 95 -1.3 29.6
19:35 1021 30.15 850 25.1 -0.7 30.7 95 -1.4 29.5
19:40 1021 30.15 850 25.1 -0.8 30.6 95 -1.4 29.4
19:45 1021 30.15 850 25.1 -0.8 30.6 96 -1.4 29.4
19:50 1021 30.15 850 25.1 -0.8 30.6 95 -1.4 29.4
19:55 1021 30.15 850 25.1 -0.8 30.5 95 -1.5 29.3
20:00 1021 30.15 850 25.1 -0.9 30.4 95 -1.5 29.2
20:05 1021 30.15 850 25.1 -0.9 30.3 96 -1.5 29.2
20:10 1021 30.15 850 25.1 -1 30.3 95 -1.6 29.1
20:15 1021 30.15 850 25.1 -1 30.1 95 -1.7 29
20:20 1021 30.15 850 25.1 -1.1 30.1 95 -1.7 28.9
20:25 1021 30.15 850 25.1 -1.1 30 95 -1.8 28.8
20:30 1021 30.15 850 25.1 -1.2 29.9 95 -1.8 28.7
20:35 1021 30.15 850 25.1 -1.2 29.8 95 -1.8 28.7
20:40 1021 30.15 850 25.1 -1.3 29.8 95 -1.9 28.6
20:45 1021 30.15 850 25.1 -1.3 29.7 95 -1.9 28.5
20:50 1021 30.15 850 25.1 -1.3 29.6 95 -2 28.4
20:55 1021 30.15 850 25.1 -1.4 29.6 95 -2 28.4
21:00 1021 30.15 850 25.1 -1.4 29.5 95 -2 28.4
21:05 1021 30.15 850 25.1 -1.4 29.5 95 -2.1 28.3
21:10 1021 30.15 850 25.1 -1.4 29.4 95 -2.1 28.2
21:15 1021 30.15 850 25.1 -1.5 29.4 96 -2.1 28.2
21:20 1021 30.15 850 25.1 -1.4 29.4 96 -2.1 28.3
21:25 1021 30.15 850 25.1 -1.4 29.4 96 -2.1 28.3
21:30 1021 30.15 850 25.1 -1.4 29.4 96 -2.1 28.3
21:35 1021 30.15 850 25.1 -1.5 29.3 95 -2.1 28.2
21:40 1021 30.15 850 25.1 -1.5 29.3 95 -2.2 28.1
21:45 1021 30.15 850 25.1 -1.6 29.2 95 -2.2 28
21:50 1021 30.15 850 25.1 -1.6 29.1 95 -2.3 27.9
21:55 1021 30.15 850 25.1 -1.6 29.2 95 -2.2 28
22:00 1021 30.15 850 25.1 -1.6 29.2 95 -2.2 28
22:05 1021 30.15 850 25.1 -1.6 29.1 95 -2.2 28
22:10 1021 30.15 850 25.1 -1.6 29.1 96 -2.2 28
22:15 1021 30.15 850 25.1 -1.6 29.1 95 -2.3 27.9
22:20 1021 30.15 850 25.1 -1.6 29.1 95 -2.3 27.9
22:25 1021 30.15 850 25.1 -1.6 29.1 95 -2.2 28
22:30 1021 30.15 850 25.1 -1.6 29.1 95 -2.2 28
22:35 1021 30.15 850 25.1 -1.6 29.1 96 -2.2 28
22:40 1021 30.15 850 25.1 -1.6 29.1 96 -2.2 28
22:45 1021 30.15 850 25.1 -1.6 29 95 -2.3 27.9
22:50 1021 30.15 850 25.1 -1.7 29 95 -2.3 27.8
22:55 1021 30.15 850 25.1 -1.7 28.9 95 -2.3 27.8
23:00 1021 30.15 850 25.1 -1.7 28.9 95 -2.4 27.8
23:05 1021 30.15 850 25.1 -1.7 28.9 95 -2.4 27.7
23:10 1021 30.15 850 25.1 -1.7 28.9 95 -2.4 27.7
23:15 1021 30.15 850 25.1 -1.8 28.8 95 -2.5 27.6
23:20 1021 30.15 850 25.1 -1.8 28.7 95 -2.5 27.5
23:25 1021 30.15 850 25.1 -1.8 28.7 95 -2.5 27.5
23:30 1021 30.15 850 25.1 -1.8 28.7 95 -2.5 27.5
23:35 1021 30.15 850 25.1 -1.8 28.7 95 -2.5 27.5
23:40 1021 30.15 850 25.1 -1.8 28.7 95 -2.5 27.6
23:45 1021 30.15 850 25.1 -1.8 28.8 95 -2.4 27.7
23:50 1021 30.15 850 25.1 -1.8 28.8 95 -2.5 27.6
23:55 1021 30.15 850 25.1 -1.8 28.8 95 -2.5 27.5
24:00 1021 30.15 850 25.1 -1.8 28.7 95 -2.5 27.5